createdAt,value
2019-04-25T00:00:43.106Z,17.84
2019-04-25T00:03:14.258Z,17.74
2019-04-25T00:05:45.054Z,17.88
2019-04-25T00:08:16.098Z,17.72
2019-04-25T00:10:47.611Z,17.71
2019-04-25T00:13:18.999Z,17.75
2019-04-25T00:15:49.922Z,17.64
2019-04-25T00:18:22.107Z,17.63
2019-04-25T00:20:57.592Z,17.56
2019-04-25T00:23:28.382Z,17.50
2019-04-25T00:26:16.010Z,17.47
2019-04-25T00:28:46.848Z,17.58
2019-04-25T00:31:17.602Z,17.49
2019-04-25T00:33:48.422Z,17.48
2019-04-25T00:36:19.170Z,17.50
2019-04-25T00:38:50.217Z,17.38
2019-04-25T00:41:22.485Z,17.42
2019-04-25T00:43:53.322Z,17.42
2019-04-25T00:46:24.131Z,17.39
2019-04-25T00:48:54.872Z,17.35
2019-04-25T00:51:25.604Z,17.32
2019-04-25T00:53:56.360Z,17.35
2019-04-25T00:56:27.502Z,17.25
2019-04-25T00:59:17.999Z,17.20
2019-04-25T01:02:07.656Z,17.10
2019-04-25T01:04:38.718Z,17.06
2019-04-25T01:07:09.652Z,17.08
2019-04-25T01:09:40.158Z,17.21
2019-04-25T01:12:11.675Z,17.28
2019-04-25T01:14:42.346Z,17.23
2019-04-25T01:17:13.094Z,17.15
2019-04-25T01:19:45.081Z,17.16
2019-04-25T01:22:17.536Z,17.20
2019-04-25T01:24:49.330Z,17.28
2019-04-25T01:27:20.540Z,17.27
2019-04-25T01:29:51.979Z,17.26
2019-04-25T01:32:24.562Z,17.13
2019-04-25T01:35:00.081Z,17.40
2019-04-25T01:37:37.095Z,17.30
2019-04-25T01:40:09.976Z,17.22
2019-04-25T01:42:58.936Z,17.23
2019-04-25T01:45:31.412Z,17.22
2019-04-25T01:48:03.492Z,17.12
2019-04-25T01:50:35.279Z,17.20
2019-04-25T01:53:06.010Z,17.36
2019-04-25T01:55:36.805Z,17.20
2019-04-25T01:58:07.749Z,17.19
2019-04-25T02:00:44.982Z,17.16
2019-04-25T02:03:16.364Z,17.04
2019-04-25T02:05:47.122Z,17.00
2019-04-25T02:08:18.036Z,16.96
2019-04-25T02:10:50.861Z,16.90
2019-04-25T02:13:23.693Z,17.00
2019-04-25T02:15:55.182Z,16.92
2019-04-25T02:18:27.036Z,16.82
2019-04-25T02:21:00.216Z,16.79
2019-04-25T02:23:30.341Z,16.86
2019-04-25T02:26:13.755Z,16.86
2019-04-25T02:28:33.884Z,16.74
2019-04-25T02:31:08.694Z,16.64
2019-04-25T02:33:37.376Z,16.67
2019-04-25T02:36:08.898Z,16.71
2019-04-25T02:38:39.970Z,16.76
2019-04-25T02:41:10.845Z,16.69
2019-04-25T02:43:41.687Z,16.59
2019-04-25T02:46:17.294Z,16.69
2019-04-25T02:49:09.166Z,16.62
2019-04-25T02:51:46.135Z,16.64
2019-04-25T02:54:16.962Z,16.63
2019-04-25T02:56:47.778Z,16.62
2019-04-25T02:59:18.722Z,16.68
2019-04-25T03:01:49.547Z,16.61
2019-04-25T03:04:19.957Z,16.57
2019-04-25T03:06:50.456Z,16.57
2019-04-25T03:09:21.253Z,16.50
2019-04-25T03:11:51.986Z,16.64
2019-04-25T03:14:26.409Z,16.54
2019-04-25T03:16:55.502Z,16.45
2019-04-25T03:19:30.761Z,16.46
2019-04-25T03:22:06.802Z,16.49
2019-04-25T03:24:35.786Z,16.48
2019-04-25T03:27:07.319Z,16.50
2019-04-25T03:29:38.379Z,16.36
2019-04-25T03:32:13.187Z,16.40
2019-04-25T03:34:43.385Z,16.37
2019-04-25T03:37:14.402Z,16.28
2019-04-25T03:39:45.236Z,16.34
2019-04-25T03:42:16.057Z,16.20
2019-04-25T03:44:47.015Z,16.26
2019-04-25T03:47:17.481Z,16.23
2019-04-25T03:49:48.259Z,16.18
2019-04-25T03:52:18.651Z,16.11
2019-04-25T03:54:49.439Z,15.97
2019-04-25T03:57:20.252Z,15.90
2019-04-25T03:59:51.065Z,15.94
2019-04-25T04:02:23.356Z,15.88
2019-04-25T04:04:54.504Z,15.82
2019-04-25T04:07:25.239Z,15.85
2019-04-25T04:09:56.071Z,15.79
2019-04-25T04:12:26.812Z,15.66
2019-04-25T04:14:57.743Z,15.62
2019-04-25T04:17:30.219Z,15.61
2019-04-25T04:20:03.950Z,15.59
2019-04-25T04:22:45.618Z,15.52
2019-04-25T04:25:21.170Z,15.48
2019-04-25T04:27:51.904Z,15.60
2019-04-25T04:30:24.157Z,15.49
2019-04-25T04:32:55.005Z,15.58
2019-04-25T04:35:25.819Z,15.46
2019-04-25T04:37:56.677Z,15.36
2019-04-25T04:40:27.627Z,15.40
2019-04-25T04:42:58.391Z,15.42
2019-04-25T04:45:28.848Z,15.35
2019-04-25T04:47:59.720Z,15.34
2019-04-25T04:50:30.176Z,15.22
2019-04-25T04:53:00.987Z,15.26
2019-04-25T04:55:31.717Z,15.18
2019-04-25T04:58:04.153Z,15.08
2019-04-25T05:00:35.431Z,15.22
2019-04-25T05:03:26.538Z,15.10
2019-04-25T05:05:58.254Z,15.09
2019-04-25T05:08:30.667Z,15.26
2019-04-25T05:11:01.437Z,15.38
2019-04-25T05:13:34.022Z,15.60
2019-04-25T05:16:04.951Z,15.73
2019-04-25T05:18:39.512Z,15.86
2019-04-25T05:21:08.340Z,15.92
2019-04-25T05:23:44.305Z,16.08
2019-04-25T05:26:16.324Z,16.06
2019-04-25T05:28:47.843Z,16.16
2019-04-25T05:31:23.994Z,16.27
2019-04-25T05:33:54.907Z,16.49
2019-04-25T05:36:27.429Z,16.48
2019-04-25T05:38:58.243Z,16.51
2019-04-25T05:41:30.722Z,16.67
2019-04-25T05:44:01.658Z,16.70
2019-04-25T05:46:34.041Z,16.66
2019-04-25T05:49:05.235Z,16.77
2019-04-25T05:51:36.219Z,16.95
2019-04-25T05:54:07.069Z,17.00
2019-04-25T05:56:37.905Z,17.26
2019-04-25T05:59:08.838Z,17.44
2019-04-25T06:01:39.291Z,17.63
2019-04-25T06:04:10.096Z,17.67
2019-04-25T06:06:40.927Z,17.80
2019-04-25T06:09:29.685Z,17.71
2019-04-25T06:12:03.053Z,17.57
2019-04-25T06:14:34.741Z,17.47
2019-04-25T06:17:10.402Z,17.55
2019-04-25T06:19:45.705Z,17.53
2019-04-25T06:22:43.529Z,17.50
2019-04-25T06:25:17.056Z,17.44
2019-04-25T06:27:56.415Z,17.39
2019-04-25T06:30:24.957Z,17.43
2019-04-25T06:32:56.177Z,17.26
2019-04-25T06:35:27.580Z,17.18
2019-04-25T06:37:58.555Z,17.12
2019-04-25T06:40:30.634Z,16.98
2019-04-25T06:43:03.263Z,16.77
2019-04-25T06:45:35.568Z,16.69
2019-04-25T06:48:10.817Z,16.60
2019-04-25T06:50:41.294Z,16.36
2019-04-25T06:53:13.602Z,16.48
2019-04-25T06:55:45.027Z,16.52
2019-04-25T06:58:16.004Z,16.44
2019-04-25T07:00:58.093Z,16.54
2019-04-25T07:03:19.314Z,16.54
2019-04-25T07:05:50.255Z,16.68
2019-04-25T07:08:21.106Z,16.75
2019-04-25T07:10:53.770Z,16.78
2019-04-25T07:13:25.595Z,16.89
2019-04-25T07:15:56.966Z,16.89
2019-04-25T07:18:32.391Z,16.94
2019-04-25T07:21:00.507Z,16.97
2019-04-25T07:23:33.421Z,17.12
2019-04-25T07:26:06.923Z,17.14
2019-04-25T07:28:41.834Z,17.18
2019-04-25T07:31:16.931Z,17.10
2019-04-25T07:33:58.220Z,17.14
2019-04-25T07:36:29.224Z,17.11
2019-04-25T07:39:09.817Z,16.90
2019-04-25T07:41:33.944Z,16.99
2019-04-25T07:44:04.948Z,16.79
2019-04-25T07:46:39.582Z,16.76
2019-04-25T07:49:08.424Z,16.78
2019-04-25T07:51:45.393Z,16.74
2019-04-25T07:54:16.395Z,16.69
2019-04-25T07:56:47.476Z,16.72
2019-04-25T07:59:18.344Z,16.72
2019-04-25T08:01:49.304Z,16.82
2019-04-25T08:04:25.008Z,16.85
2019-04-25T08:07:01.678Z,16.95
2019-04-25T08:09:35.759Z,16.89
2019-04-25T08:12:08.342Z,16.97
2019-04-25T08:14:41.376Z,17.04
2019-04-25T08:17:14.496Z,17.02
2019-04-25T08:19:45.560Z,17.17
2019-04-25T08:22:17.737Z,17.27
2019-04-25T08:25:08.098Z,17.40
2019-04-25T08:27:38.945Z,17.42
2019-04-25T08:30:10.341Z,17.60
2019-04-25T08:32:41.738Z,17.66
2019-04-25T08:35:16.101Z,17.64
2019-04-25T08:37:47.224Z,17.74
2019-04-25T08:40:18.306Z,17.75
2019-04-25T08:42:51.614Z,17.81
2019-04-25T08:45:24.342Z,17.86
2019-04-25T08:47:55.068Z,17.81
2019-04-25T08:50:33.226Z,17.84
2019-04-25T08:53:03.881Z,17.93
2019-04-25T08:55:54.032Z,17.99
2019-04-25T08:58:43.645Z,18.12
2019-04-25T09:01:32.428Z,18.10
2019-04-25T09:04:13.216Z,18.20
2019-04-25T09:06:44.340Z,18.21
2019-04-25T09:09:15.092Z,18.32
2019-04-25T09:11:46.878Z,18.32
2019-04-25T09:14:18.074Z,18.52
2019-04-25T09:16:48.916Z,18.54
2019-04-25T09:19:19.866Z,18.72
2019-04-25T09:21:50.691Z,18.67
2019-04-25T09:24:21.233Z,18.71
2019-04-25T09:26:53.920Z,18.80
2019-04-25T09:29:24.156Z,18.98
2019-04-25T09:31:54.978Z,19.04
2019-04-25T09:34:25.796Z,19.10
2019-04-25T09:36:56.279Z,19.22
2019-04-25T09:39:28.809Z,19.29
2019-04-25T09:41:59.739Z,19.37
2019-04-25T09:44:32.222Z,19.41
2019-04-25T09:47:03.533Z,19.40
2019-04-25T09:49:36.901Z,19.42
2019-04-25T09:52:10.015Z,19.39
2019-04-25T09:54:54.818Z,19.44
2019-04-25T09:57:33.643Z,19.49
2019-04-25T10:00:08.570Z,19.56
2019-04-25T10:02:39.113Z,19.53
2019-04-25T10:05:10.352Z,19.62
2019-04-25T10:07:41.175Z,19.65
2019-04-25T10:10:13.524Z,19.60
2019-04-25T10:12:44.237Z,19.72
2019-04-25T10:15:20.967Z,19.76
2019-04-25T10:17:51.913Z,19.87
2019-04-25T10:20:23.206Z,19.92
2019-04-25T10:22:54.492Z,20.04
2019-04-25T10:25:24.941Z,20.19
2019-04-25T10:27:56.944Z,20.38
2019-04-25T10:30:27.717Z,20.47
2019-04-25T10:32:58.547Z,20.47
2019-04-25T10:35:29.847Z,20.54
2019-04-25T10:38:00.534Z,20.51
2019-04-25T10:40:31.679Z,20.53
2019-04-25T10:43:04.000Z,20.51
2019-04-25T10:45:35.983Z,20.50
2019-04-25T10:48:06.951Z,20.50
2019-04-25T10:50:37.895Z,20.48
2019-04-25T10:53:08.729Z,20.50
2019-04-25T10:55:40.371Z,20.48
2019-04-25T10:58:12.039Z,20.50
2019-04-25T11:00:46.229Z,20.56
2019-04-25T11:03:35.119Z,20.56
2019-04-25T11:06:06.090Z,20.49
2019-04-25T11:08:36.991Z,20.41
2019-04-25T11:11:07.835Z,20.42
2019-04-25T11:13:38.691Z,20.53
2019-04-25T11:16:10.725Z,20.67
2019-04-25T11:18:41.869Z,20.62
2019-04-25T11:21:13.813Z,20.64
2019-04-25T11:23:47.676Z,20.70
2019-04-25T11:26:17.421Z,20.68
2019-04-25T11:29:00.161Z,20.70
2019-04-25T11:31:33.704Z,20.70
2019-04-25T11:34:05.547Z,20.79
2019-04-25T11:36:36.034Z,20.87
2019-04-25T11:39:27.301Z,20.87
2019-04-25T11:41:58.124Z,20.91
2019-04-25T11:44:29.505Z,20.94
2019-04-25T11:47:00.316Z,20.95
2019-04-25T11:49:31.345Z,21.12
2019-04-25T11:52:03.110Z,21.16
2019-04-25T11:54:34.765Z,21.26
2019-04-25T11:57:05.507Z,21.26
2019-04-25T11:59:36.547Z,21.34
2019-04-25T12:02:09.341Z,21.47
2019-04-25T12:04:40.361Z,21.53
2019-04-25T12:07:11.110Z,21.41
2019-04-25T12:09:43.144Z,21.41
2019-04-25T12:12:14.743Z,21.44
2019-04-25T12:14:46.399Z,21.56
2019-04-25T12:17:17.731Z,21.47
2019-04-25T12:19:49.082Z,21.54
2019-04-25T12:22:20.011Z,21.57
2019-04-25T12:24:50.851Z,21.69
2019-04-25T12:27:21.794Z,21.79
2019-04-25T12:29:52.631Z,21.79
2019-04-25T12:32:23.455Z,21.96
2019-04-25T12:34:54.311Z,22.12
2019-04-25T12:37:25.575Z,22.08
2019-04-25T12:39:56.385Z,22.02
2019-04-25T12:42:26.799Z,22.05
2019-04-25T12:44:59.491Z,22.15
2019-04-25T12:47:40.677Z,22.25
2019-04-25T12:50:11.717Z,22.28
2019-04-25T12:52:43.282Z,22.25
2019-04-25T12:55:14.715Z,22.28
2019-04-25T12:57:45.451Z,22.30
2019-04-25T13:00:18.032Z,22.27
2019-04-25T13:02:48.778Z,22.33
2019-04-25T13:05:19.604Z,22.30
2019-04-25T13:07:51.456Z,22.37
2019-04-25T13:10:23.632Z,22.28
2019-04-25T13:12:55.508Z,22.24
2019-04-25T13:15:27.022Z,22.20
2019-04-25T13:17:58.379Z,22.28
2019-04-25T13:20:29.225Z,22.28
2019-04-25T13:23:00.563Z,22.31
2019-04-25T13:25:31.620Z,22.34
2019-04-25T13:28:06.768Z,22.35
2019-04-25T13:31:04.034Z,22.28
2019-04-25T13:33:45.084Z,22.21
2019-04-25T13:36:17.590Z,22.25
2019-04-25T13:38:48.487Z,22.23
2019-04-25T13:41:19.677Z,22.31
2019-04-25T13:43:50.368Z,22.41
2019-04-25T13:46:24.338Z,22.41
2019-04-25T13:48:54.383Z,22.40
2019-04-25T13:51:26.171Z,22.41
2019-04-25T13:53:57.004Z,22.51
2019-04-25T13:56:28.712Z,22.63
2019-04-25T13:58:59.789Z,22.68
2019-04-25T14:01:31.780Z,22.67
2019-04-25T14:04:04.356Z,22.67
2019-04-25T14:06:35.592Z,22.73
2019-04-25T14:09:09.003Z,22.72
2019-04-25T14:11:39.903Z,22.67
2019-04-25T14:14:10.758Z,22.62
2019-04-25T14:16:46.120Z,22.54
2019-04-25T14:19:18.508Z,22.54
2019-04-25T14:21:49.227Z,22.53
2019-04-25T14:24:22.758Z,22.56
2019-04-25T14:26:52.637Z,22.62
2019-04-25T14:29:23.778Z,22.70
2019-04-25T14:31:54.926Z,22.82
2019-04-25T14:34:26.485Z,22.85
2019-04-25T14:36:57.133Z,22.75
2019-04-25T14:39:27.784Z,22.82
2019-04-25T14:41:58.216Z,22.84
2019-04-25T14:44:29.009Z,22.78
2019-04-25T14:46:59.682Z,22.77
2019-04-25T14:49:30.591Z,22.82
2019-04-25T14:52:01.518Z,22.73
2019-04-25T14:54:37.058Z,22.76
2019-04-25T14:57:09.414Z,22.73
2019-04-25T14:59:40.160Z,22.78
2019-04-25T15:02:10.886Z,22.84
2019-04-25T15:04:41.618Z,22.86
2019-04-25T15:07:12.017Z,22.84
2019-04-25T15:09:42.894Z,22.79
2019-04-25T15:12:13.830Z,22.83
2019-04-25T15:14:44.571Z,22.78
2019-04-25T15:17:15.392Z,22.87
2019-04-25T15:19:46.228Z,22.88
2019-04-25T15:22:16.924Z,22.93
2019-04-25T15:24:47.811Z,22.91
2019-04-25T15:27:19.184Z,22.84
2019-04-25T15:29:50.202Z,22.83
2019-04-25T15:32:22.571Z,22.86
2019-04-25T15:34:55.047Z,22.81
2019-04-25T15:37:43.811Z,22.80
2019-04-25T15:40:16.488Z,22.85
2019-04-25T15:43:05.266Z,22.86
2019-04-25T15:45:43.756Z,22.95
2019-04-25T15:48:14.684Z,22.94
2019-04-25T15:50:45.523Z,22.89
2019-04-25T15:53:16.476Z,22.92
2019-04-25T15:55:47.231Z,22.91
2019-04-25T15:58:18.154Z,22.94
2019-04-25T16:00:48.986Z,22.91
2019-04-25T16:03:19.726Z,22.91
2019-04-25T16:05:50.447Z,22.90
2019-04-25T16:08:21.186Z,22.91
2019-04-25T16:10:52.022Z,22.90
2019-04-25T16:13:22.555Z,22.91
2019-04-25T16:15:53.288Z,22.95
2019-04-25T16:18:23.778Z,22.93
2019-04-25T16:20:54.660Z,22.87
2019-04-25T16:23:25.389Z,22.92
2019-04-25T16:25:56.117Z,22.94
2019-04-25T16:28:27.634Z,22.94
2019-04-25T16:30:58.739Z,22.94
2019-04-25T16:33:30.472Z,22.86
2019-04-25T16:36:01.822Z,22.97
2019-04-25T16:38:33.362Z,23.07
2019-04-25T16:41:05.128Z,23.01
2019-04-25T16:43:37.291Z,23.02
2019-04-25T16:46:08.049Z,23.06
2019-04-25T16:48:39.226Z,23.00
2019-04-25T16:51:10.541Z,22.99
2019-04-25T16:53:40.993Z,22.98
2019-04-25T16:56:12.214Z,22.98
2019-04-25T16:58:42.599Z,22.88
2019-04-25T17:01:14.284Z,22.98
2019-04-25T17:03:45.500Z,22.92
2019-04-25T17:06:16.392Z,22.99
2019-04-25T17:08:47.093Z,23.00
2019-04-25T17:11:18.361Z,22.95
2019-04-25T17:13:57.204Z,23.14
2019-04-25T17:16:30.599Z,23.18
2019-04-25T17:19:06.131Z,23.12
2019-04-25T17:21:37.517Z,23.22
2019-04-25T17:24:08.906Z,23.13
2019-04-25T17:26:39.767Z,23.21
2019-04-25T17:29:12.227Z,23.30
2019-04-25T17:31:45.285Z,23.24
2019-04-25T17:34:18.229Z,23.31
2019-04-25T17:36:53.337Z,23.05
2019-04-25T17:39:26.011Z,23.01
2019-04-25T17:41:56.873Z,22.85
2019-04-25T17:44:27.602Z,22.86
2019-04-25T17:47:06.250Z,22.83
2019-04-25T17:49:32.746Z,22.81
2019-04-25T17:52:03.887Z,22.69
2019-04-25T17:54:34.746Z,22.71
2019-04-25T17:57:05.493Z,22.62
2019-04-25T17:59:36.902Z,22.55
2019-04-25T18:02:08.363Z,22.54
2019-04-25T18:04:40.225Z,22.50
2019-04-25T18:07:11.269Z,22.40
2019-04-25T18:09:42.308Z,22.35
2019-04-25T18:12:13.825Z,22.25
2019-04-25T18:14:46.631Z,22.16
2019-04-25T18:17:17.621Z,22.14
2019-04-25T18:19:57.513Z,22.09
2019-04-25T18:22:37.804Z,22.02
2019-04-25T18:25:16.617Z,21.94
2019-04-25T18:28:12.547Z,21.92
2019-04-25T18:30:47.212Z,21.93
2019-04-25T18:33:22.600Z,21.86
2019-04-25T18:35:55.095Z,21.82
2019-04-25T18:38:44.138Z,21.79
2019-04-25T18:41:18.840Z,21.72
2019-04-25T18:43:59.817Z,21.68
2019-04-25T18:46:32.342Z,21.67
2019-04-25T18:49:03.189Z,21.60
2019-04-25T18:51:34.040Z,21.57
2019-04-25T18:54:15.918Z,21.55
2019-04-25T18:56:48.493Z,21.55
2019-04-25T18:59:23.746Z,21.43
2019-04-25T19:02:05.013Z,21.39
2019-04-25T19:04:38.295Z,21.41
2019-04-25T19:07:09.267Z,21.35
2019-04-25T19:09:40.755Z,21.30
2019-04-25T19:12:11.742Z,21.32
2019-04-25T19:14:43.130Z,21.26
2019-04-25T19:17:14.561Z,21.22
2019-04-25T19:19:45.651Z,21.16
2019-04-25T19:22:16.517Z,21.14
2019-04-25T19:24:47.709Z,21.14
2019-04-25T19:27:23.990Z,21.10
2019-04-25T19:29:53.264Z,21.07
2019-04-25T19:32:25.137Z,21.03
2019-04-25T19:34:56.065Z,21.00
2019-04-25T19:37:26.901Z,21.00
2019-04-25T19:40:15.820Z,21.00
2019-04-25T19:42:51.389Z,20.94
2019-04-25T19:45:22.203Z,20.94
2019-04-25T19:47:53.057Z,20.90
2019-04-25T19:50:23.883Z,20.85
2019-04-25T19:52:54.460Z,20.83
2019-04-25T19:55:25.249Z,20.80
2019-04-25T19:57:55.973Z,20.86
2019-04-25T20:00:26.726Z,20.80
2019-04-25T20:03:05.279Z,20.78
2019-04-25T20:05:52.537Z,20.74
2019-04-25T20:08:25.339Z,20.71
2019-04-25T20:10:57.918Z,20.67
2019-04-25T20:13:28.850Z,20.67
2019-04-25T20:15:59.641Z,20.64
2019-04-25T20:18:30.438Z,20.63
2019-04-25T20:21:01.264Z,20.62
2019-04-25T20:23:32.192Z,20.56
2019-04-25T20:26:03.292Z,20.55
2019-04-25T20:28:34.124Z,20.52
2019-04-25T20:31:04.593Z,20.49
2019-04-25T20:33:35.328Z,20.50
2019-04-25T20:36:17.286Z,20.44
2019-04-25T20:38:38.657Z,20.42
2019-04-25T20:41:09.574Z,20.39
2019-04-25T20:43:53.746Z,20.38
2019-04-25T20:46:19.684Z,20.34
2019-04-25T20:48:50.498Z,20.34
2019-04-25T20:51:21.231Z,20.36
2019-04-25T20:53:52.835Z,20.31
2019-04-25T20:56:23.734Z,20.28
2019-04-25T20:58:55.585Z,20.30
2019-04-25T21:01:26.630Z,20.29
2019-04-25T21:03:57.050Z,20.26
2019-04-25T21:06:29.534Z,20.25
2019-04-25T21:08:59.962Z,20.23
2019-04-25T21:11:31.322Z,20.20
2019-04-25T21:14:03.694Z,20.20
2019-04-25T21:16:48.046Z,20.16
2019-04-25T21:19:29.030Z,20.12
2019-04-25T21:22:00.991Z,20.15
2019-04-25T21:24:31.912Z,20.10
2019-04-25T21:27:03.523Z,20.08
2019-04-25T21:29:34.444Z,20.05
2019-04-25T21:32:05.362Z,19.99
2019-04-25T21:34:36.192Z,19.99
2019-04-25T21:37:07.424Z,19.98
2019-04-25T21:39:52.799Z,20.00
2019-04-25T21:42:29.278Z,19.93
2019-04-25T21:45:00.519Z,19.91
2019-04-25T21:47:30.995Z,19.88
2019-04-25T21:50:02.841Z,19.95
2019-04-25T21:52:34.181Z,19.83
2019-04-25T21:55:06.131Z,19.81
2019-04-25T21:57:37.268Z,19.80
2019-04-25T22:00:13.528Z,19.76
2019-04-25T22:02:44.846Z,19.78
2019-04-25T22:05:16.018Z,19.73
2019-04-25T22:07:47.254Z,19.68
2019-04-25T22:10:18.510Z,19.67
2019-04-25T22:12:49.348Z,19.64
2019-04-25T22:15:20.386Z,19.61
2019-04-25T22:17:51.228Z,19.60
2019-04-25T22:20:22.064Z,19.58
2019-04-25T22:22:52.634Z,19.54
2019-04-25T22:25:23.539Z,19.54
2019-04-25T22:27:55.284Z,19.51
2019-04-25T22:30:26.228Z,19.50
2019-04-25T22:33:05.670Z,19.51
2019-04-25T22:35:37.828Z,19.46
2019-04-25T22:38:09.064Z,19.54
2019-04-25T22:40:39.908Z,19.50
2019-04-25T22:43:12.003Z,19.48
2019-04-25T22:45:43.120Z,19.48
2019-04-25T22:48:13.878Z,19.48
2019-04-25T22:50:45.098Z,19.48
2019-04-25T22:53:21.771Z,19.50
2019-04-25T22:55:48.619Z,19.50
2019-04-25T22:58:19.448Z,19.48
2019-04-25T23:00:50.190Z,19.46
2019-04-25T23:03:25.418Z,19.49
2019-04-25T23:05:58.108Z,19.46
2019-04-25T23:08:29.248Z,19.43
2019-04-25T23:11:00.078Z,19.43
2019-04-25T23:13:30.570Z,19.44
2019-04-25T23:16:02.475Z,19.38
2019-04-25T23:18:33.724Z,19.40
2019-04-25T23:21:05.695Z,19.37
2019-04-25T23:23:37.166Z,19.34
2019-04-25T23:26:21.806Z,19.38
2019-04-25T23:28:54.688Z,19.34
2019-04-25T23:31:30.028Z,19.30
2019-04-25T23:34:00.901Z,19.29
2019-04-25T23:36:31.810Z,19.23
2019-04-25T23:39:06.376Z,19.21
2019-04-25T23:41:38.700Z,19.18
2019-04-25T23:44:12.216Z,19.18
2019-04-25T23:46:43.339Z,19.20
2019-04-25T23:49:14.785Z,19.16
2019-04-25T23:51:47.498Z,19.12
2019-04-25T23:54:18.734Z,19.18
2019-04-25T23:56:49.542Z,19.13
2019-04-25T23:59:20.302Z,19.10
